Aviation Digital Data Service (ADDS)

Output produced by METARs form (0956 UTC 19 January 2019)
found at http://www.aviationweather.gov/metar/data/
 
PADK 190932Z AUTO 10018G21KT 10SM OVC029 02/M03 A2971 RMK AO2 FZRANO
PAMR 190953Z 00000KT 1/4SM FZFG VV001 M13/M15 A2958 RMK AO2 SLP018 I1000 T11281150 $
PANC 190953Z 00000KT 1/4SM R07R/5000VP6000FT FZFG BKN001 M13/M17 A2957 RMK AO2 SFC VIS 4 SLP018 T11281167 $
PANC 190541Z 1906/2012 VRB03KT 1/4SM FZFG VV002 
     FM192100 VRB04KT 1SM BR BKN004 
     FM200100 03005KT P6SM VCFG FEW004
       
PANI 190856Z AUTO 34007KT 9SM -SN OVC017 M12/M14 A3000 RMK AO2 SNE13B44 SLP127 P0000 60000 T11171139 410891122 53002 FZRANO
PAAK 190856Z AUTO 09022G27KT 9SM OVC025 02/M03 A2979 RMK AO2 PK WND 09027/0855 SLP090 6//// T00171028 400171039 56018 FZRANO PNO $
PABR 190853Z AUTO 28015KT 10SM OVC011 M14/M16 A2997 RMK SLP150 60000 T11391156 410891283 51020 FZRANO TSNO $ VIA AUTODIAL
PABR 190757Z 1908/2006 28017KT 6SM BR OVC013 
     FM191100 28011KT 4SM BR OVC007 
     FM192300 31009KT 5SM BR OVC019 
     FM200300 29007KT 6SM BR OVC025
       
PABE 190953Z 34009KT 10SM CLR M17/M19 A3003 RMK AO2 SLP173 T11721189
PABE 190526Z 1906/2006 34011KT P6SM BKN015 
     TEMPO 1908/1910 SCT015 
     FM191000 36010KT P6SM SCT015 
     FM191900 36009KT P6SM VCSH BKN020
       
PABV 190938Z AUTO 05006KT 3/4SM BR OVC001 M13/M14 A2959 RMK AO2 FZRANO
PACD 190953Z AUTO 36016KT 10SM CLR M01/M03 A2972 RMK AO2 SLP063 T10061028 TSNO
PACD 190543Z 1906/2006 36020KT 6SM -SN BR BKN007 OVC050 
     TEMPO 1906/1910 4SM -SN SCT007 OVC050 
     FM191200 01018KT P6SM FEW010 BKN020 
     FM192000 03016KT P6SM OVC050
       
PACV 190953Z 00000KT 10SM CLR M09/M11 A2950 RMK AO2 SLP991 I1000 T10891111
PACV 190541Z 1906/2006 VRB04KT P6SM SCT020
       
PASC 190953Z 12004KT 1 1/2SM -SN BR OVC005 M17/M19 A2994 RMK AO2 SNB50 SLP141 P0000 T11721189
PASC 190523Z 1906/2006 23003KT 1/2SM FZFG OVC004 
     FM191000 25008KT 1 1/2SM BR OVC004 
     FM200000 23008KT 1 1/2SM -SN BR BKN003 
     FM200200 23009KT 1 1/2SM BR FEW250 
     FM200400 22009KT 4SM BR SKC
       
PABI 190953Z AUTO 29006KT 4SM -SN BR OVC028 M18/M19 A2980 RMK AO2 SLP147 P0000 T11781194 TSNO
TAF AMD PABI 190222Z 1902/2004 VRB03KT 4800 BR BKN015 620154 QNH2977INS 
     BECMG 1917/1918 VRB03KT 3200 BR SCT035 QNH2979INS TXM17/1923Z TNM23/1911Z
LAST NO AMDS AFT 1902 NEXT 2214
       
PADL 190653Z 36015G22KT 10SM CLR M05/M09 A2977
PADL 190526Z 1906/2006 35012G22KT P6SM SCT070 
     FM191800 35010G16KT P6SM SKC
       
PAFA 190953Z 00000KT 10SM FEW032 OVC042 M18/M22 A2990 RMK AO2 SNE23 SLP140 T11781217 PNO
PAFA 190747Z 1908/2012 00000KT 3SM -SN BKN025 OVC040 
     FM191000 00000KT 4SM BR BKN025 
     FM191500 00000KT 4SM BR BKN050 
     FM191900 00000KT 1 1/2SM BR OVC025 
     FM192200 00000KT 6SM BR BKN025
       
PAGA 190934Z AUTO 29003KT 10SM OVC013 M16/M18 A3003 RMK AO2 SNB10E25 P0000 FZRANO
PAGA 190523Z 1906/2006 00000KT P6SM OVC019 
     FM190900 00000KT P6SM SCT045 SCT100 BKN200 
     FM200000 00000KT P6SM SKC
       
PAGM 190904Z AUTO 23011KT 3SM -SN BR OVC004 M02/M02 A3003 RMK AO2 P0000 FZRANO
PAGK 190953Z AUTO 00000KT 10SM OVC007 M23/M26 A2969 RMK AO2 SLP125 T12281256 TSNO
PAGK 190945Z 1910/2006 VRB03KT P6SM OVC008 
     FM200000 35006KT P6SM SCT008 BKN025
       
PAGS 190856Z AUTO 00000KT 10SM UP BKN043 OVC060 M03/M04 A2953 RMK AO2 UPB35SNE35 SLP999 P0000 60000 T10331039 410111122 57016 FZRANO
PAGS 190540Z 1906/2006 34003KT 6SM -SN BR BKN040 OVC080 
     TEMPO 1906/1908 3SM -SN BR BKN025 
     FM191000 34003KT P6SM SCT250 AMD LTD TO CLD VIS AND WIND
       
PAHN 190954Z AUTO 32009KT 10SM OVC046 M07/M13 A2964 RMK AO2 SLP038 T10671128 TSNO
PAHN 190540Z 1906/2006 30012KT P6SM BKN070 OVC200 AMD LTD TO CLD VIS AND WIND
       
PAHO 190953Z AUTO 00000KT 10SM BKN040 M07/M08 A2956 RMK AO2 SLP011 I1000 T10721083 TSNO
PAHO 190541Z 1906/2006 VRB04KT P6SM SKC
       
PAHP 190756Z AUTO 36006KT 10SM CLR M11/M13 A3013 RMK AO2 SLP240 T11111128 FZRANO
PAIL 190953Z AUTO 32006KT 10SM CLR M13/M17 A2969 RMK AO2 SLP057 T11281167 TSNO
PAIL 190526Z 1906/2006 35010KT P6SM VCFG FEW010 FEW100
       
PAJN 190953Z 00000KT 10SM FEW028 BKN050 OVC070 M03/M04 A2952 RMK AO2 SLP997 T10331044
PAJN 190540Z 1906/2006 VRB03KT 6SM -SN OVC040 
     TEMPO 1906/1909 3SM -SN OVC030 
     FM190900 VRB03KT P6SM SCT250
       
PAFE 190913Z AUTO 02010G18KT 320V060 3SM -SN BR SCT006 OVC032 M01/M02 A2944 RMK AO2 P0000 FZRANO
PAEN 190953Z AUTO 07005KT 10SM CLR M18/M19 A2959 RMK AO2 SLP025 T11781194 TSNO
PAEN 190541Z 1906/2006 03003KT P6SM VCFG FEW005 
     TEMPO 1909/1912 1/2SM FZFG VV005 
     FM191200 03005KT 1/2SM FZFG VV005 
     FM191900 03005KT P6SM VCFG FEW005
       
PAKT 190953Z AUTO 15003KT 10SM CLR 03/01 A2923 RMK AO2 SLP899 T00280011 TSNO
PAKT 190540Z 1906/2006 13009KT P6SM VCSH SCT025 OVC050 
     FM191100 VRB05KT 4SM -RA BR BKN025 OVC040 
     FM191400 32008KT P6SM VCSH OVC070 
     FM200000 32006KT 5SM -RA OVC025 AMD LTD TO CLD VIS AND WIND 1906/1915
       
PAKN 190954Z 01013KT 10SM CLR M10/M15 A2971 RMK AO2 SLPNO T10941150 $
PAKN 190526Z 1906/2006 01013G20KT P6SM SKC 
     FM191200 36012KT P6SM SKC
       
PAKW 190953Z AUTO 34005KT 10SM BKN110 05/03 A2922 RMK AO2 SLP895 T00500028 TSNO
PAKW 190540Z 1906/2006 04010KT P6SM VCSH SCT025 OVC050 
     FM191300 04012KT 6SM -RA BR BKN025 OVC040 
     FM191700 04009KT P6SM VCSH OVC060 
     FM200300 VRB03KT 5SM -RA BR BKN025 OVC040 AMD LTD TO CLD VIS AND WIND
       
PADQ 190853Z AUTO 31012KT 10SM OVC033 01/M01 A2952 RMK AO2 SLP998 T00111006 400391017 56001 TSNO
PADQ 190541Z 1906/2006 29015KT P6SM OVC030 
     FM191500 31008KT P6SM SCT030 
     FM192300 32012G22KT P6SM SCT028
       
PAOT 190953Z AUTO 00000KT 10SM CLR M21/M24 A3008 RMK AO2 SLP184 T12111239 TSNO $
PAOT 190523Z 1906/2006 00000KT P6SM SCT050 SCT100 
     FM192000 VRB03KT P6SM FEW050 SCT100 
     FM200000 32004KT P6SM BKN250
       
PAMC 190953Z AUTO VRB04KT 10SM CLR M25/M27 A2996 RMK AO2 SLP158 T12501267 TSNO
PAMC 190523Z 1906/2006 34004KT P6SM OVC035 
     FM190900 00000KT P6SM BKN060 
     FM191200 00000KT P6SM OVC200
       
PANN 190953Z AUTO 00000KT 7SM OVC024 M17/M19 A2989 RMK AO2 SNE49 SLP138 P0000 T11721194 TSNO
PAOM 190953Z AUTO 08005KT 3SM -SN BR BKN014 OVC022 M13/M15 A3006 RMK AO2 SLP180 P0000 T11331150 TSNO
PAOM 190809Z 1908/2006 00000KT P6SM BKN015 OVC025 
     FM191400 00000KT P6SM BKN050 
     FM200000 00000KT P6SM SCT250
       
PAAQ 190953Z AUTO 35003KT 10SM SCT003 M13/M17 A2956 RMK AO2 SLP017 I1001 T11331167 TSNO
PAAQ 190541Z 1906/2006 VRB04KT P6SM VCFG SCT002 
     TEMPO 1906/1910 1/2SM FZFG BKN002 
     FM191000 VRB03KT 1/2SM FZFG BKN002 
     FM192000 36005KT P6SM VCFG SCT002 BKN010 
     FM192200 36005KT P6SM VCFG SCT002 SCT010
       
PAPG 190924Z AUTO 25004KT 10SM SCT006 OVC080 M01/M02 A2941 RMK AO2 P0001 FZRANO
PAPG 190540Z 1906/2006 VRB04KT 4SM -SN BR FEW006 SCT010 OVC020 
     TEMPO 1906/1908 2SM -SN BR BKN006 
     FM190800 00000KT 5SM BR OVC006 
     FM192100 VRB03KT P6SM SCT004 AMD LTD TO CLD VIS AND WIND 1906/1915
       
PAPO 190856Z AUTO 19003KT 9SM -SN FEW007 OVC017 M18/M21 A3010 RMK AO2 SNB45 SLP192 P0000 60000 T11831206 410721233 53002 FZRANO
PASD 190856Z AUTO 34014KT 10SM CLR 03/M03 A2964 RMK AO2 SLP040 6//// T00281033 400440017 51005 PNO $
PASD 190543Z 1906/2006 35014G22KT P6SM FEW035 BKN060 AMD LTD TO CLD VIS AND WIND
       
PAWD 190853Z AUTO 01010KT 10SM CLR M05/M07 A2953 RMK SLP000 T10501072 400061050 58002 TSNO VIA AUTODIAL
PASH 190856Z AUTO 14005KT 9SM -SN OVC023 M15/M17 A3007 RMK AO2 SLP185 P0000 60000 T11501172 411281189 56004 FZRANO
PASI 190953Z 36003KT 10SM BKN050 OVC060 03/00 A2933 RMK AO2 SLP932 T00330000 $
PASI 190540Z 1906/2006 35006KT P6SM VCSH OVC060
       
PAGY 190953Z AUTO 03016G25KT 10SM OVC049 M05/M15 A2970 RMK AO2 PK WND 03027/0911 SLP057 T10501150 TSNO
PAGY 190540Z 1906/2006 03018G25KT P6SM SCT070 BKN200 AMD LTD TO CLD VIS AND WIND
       
PASX 190856Z AUTO 08005KT 9SM -SN CLR M16/M17 A2961 RMK AO2 SLP038 P0000 60000 T11561172 410561172 58001 FZRANO
PAPB 190953Z AUTO 04022KT 10SM CLR M03/M05 A2995 RMK AO2 PK WND 04030/0928 SLP130 T10281050 TSNO $
PASN 190953Z AUTO 05013KT 10SM CLR M04/M07 A3001 RMK AO2 SLP162 T10391072 TSNO
PASN 190543Z 1906/2006 04012G22KT P6SM SCT020 
     TEMPO 1906/1908 BKN020 
     FM192200 06020G28KT P6SM OVC015
       
PATK 190953Z AUTO 05003KT 10SM CLR M21/M24 A2957 RMK AO2 SLP024 T12111244 TSNO
PATK 190541Z 1906/2006 02006KT P6SM SKC
       
PADU 190856Z AUTO 35011G18KT 10SM OVC016 01/M03 A2982 RMK AO2 SLP102 6//// T00061028 400110000 58004 FZRANO PNO $
PADU 190543Z 1906/2006 01012G24KT 6SM -RA BR OVC015 
     FM191600 04012KT P6SM OVC015
       
PAVD 190656Z 07003KT 10SM CLR M14/M15 A2958
PAVD 190541Z 1906/2006 07007KT P6SM SKC 
     FM191800 09010G15KT P6SM SKC AMD LTD TO CLD VIS AND WIND
       
PAWS 190856Z AUTO 00000KT 10SM CLR M19/M21 A2957 RMK AO2 SLP030 T11891211 410891189 53001 FZRANO
PAWG 190856Z AUTO 00000KT 10SM BKN095 M01/M02 A2939 RMK AO2 PRESFR SLP951 6//// T10061022 400111017 58041 FZRANO TSNO PNO $
PAWG 190540Z 1906/2006 08007KT P6SM VCSH SCT025 OVC040 
     TEMPO 1906/1907 5SM -SNRA BR BKN025 
     FM190700 08007KT P6SM VCSH BKN100 AMD LTD TO CLD VIS AND WIND 1906/1915
       
PAYA 190953Z AUTO 00000KT 10SM CLR M09/M11 A2944 RMK AO2 SLP970 I1000 T10941111 TSNO
PAYA 190540Z 1906/2006 VRB03KT P6SM FEW035 SCT200 AMD LTD TO CLD VIS AND WIND